• Join FlightAware (Why Join?)
  • Login
  • US Flag 
11:27AM EST


 

Airport Tracker/Info


-or-


 

Live Flight TrackerFlight Track Log ✈ N248CG ✈ 24-Jun-2013 ✈ M22 - KGAD

Flight Track Log - Related Links

Times and Time Zones

All times are in EDT time to prevent confusion due to time zone crossing. See the N248CG flight status page for this flight to view local times or setup timezone preferences in your user account.

Time Position Orientation Groundspeed Altitude Reporting Facility
EDT Latitude Longitude Course Direction KTS MPH feet Rate Location/Type
05:05PM 34.3833 -87.6642 109° East 160 184 3,600  Level Memphis Center
05:06PM 34.3719 -87.6219 108° East 143 165 4,500 900 Climbing Memphis Center
05:07PM 34.3606 -87.5794 108° East 132 152 5,400 900 Climbing Memphis Center
05:08PM 34.3492 -87.5369 108° East 132 152 6,300 850 Climbing Memphis Center
05:09PM 34.3378 -87.4947 108° East 132 152 7,100 800 Climbing Memphis Center
05:10PM 34.3286 -87.4522 105° East 132 152 7,900 700 Climbing Memphis Center
05:11PM 34.3233 -87.4097 99° East 132 152 8,500 550 Climbing Memphis Center
05:12PM 34.3181 -87.3644 98° East 132 152 9,000 250 Climbing Memphis Center
05:13PM 34.3003 -87.3125 112° Southeast 149 171 9,000  Level Memphis Center
05:14PM 34.2842 -87.2578 110° East 163 188 9,000  Level Memphis Center
05:15PM 34.2661 -87.1981 110° East 174 200 9,000  Level Memphis Center
05:16PM 34.2500 -87.1408 109° East 174 200 9,000  Level Memphis Center
05:17PM 34.2339 -87.0836 109° East 174 200 9,000  Level Memphis Center
05:18PM 34.2178 -87.0264 109° East 174 200 9,000  Level Memphis Center
05:19PM 34.1994 -86.9694 111° Southeast 174 200 9,000 -50 Level Memphis Center
05:20PM 34.1811 -86.9125 111° Southeast 174 200 8,900 -350 Descending Memphis Center
05:21PM 34.1628 -86.8528 110° East 174 200 8,300 -450 Descending Memphis Center
05:22PM 34.1422 -86.7886 111° Southeast 186 214 8,000 -402 Descending Memphis Center
05:23PM 34.1081 -86.6831 111° Southeast 195 224 7,200 -509 Descending Atlanta Center
05:24PM 34.0928 -86.6200 106° East 191 220 6,600 -639 Descending Atlanta Center
05:25PM 34.0794 -86.5569 104° East 190 219 5,900 -694 Descending Atlanta Center
05:26PM 34.0642 -86.4936 106° East 187 215 5,200 -522 Descending Atlanta Center
05:27PM 34.0547 -86.4408 102° East 186 214 4,900 -220 Descending Atlanta Center
05:28PM 34.0431 -86.3903 106° East 176 203 4,800 -275 Descending Atlanta Center
05:29PM 34.0297 -86.3347 106° East 177 204 4,400 -417 Descending Atlanta Center
05:30PM 34.0161 -86.2792 106° East 178 205 4,000 -248 Descending Atlanta Center
05:31PM 34.0044 -86.2239 104° East 171 197 3,900 -295 Descending Atlanta Center
05:32PM 33.9931 -86.1683 104° East 166 191 3,400 -595 Descending Atlanta Center
05:33PM 33.9750 -86.1153 112° Southeast 174 200 2,700 -331 Descending Atlanta Center
05:34PM 33.9731 -86.1053 103° East 174 200 2,700  Level Atlanta Center